LFMT Información de aeropuertos

Información de pistas
Pista 12L Longitud 8530 ft Ancho 164 ft
Elevación 17 ft Umbral 0 ft Rumbo 124
Pista 30R Longitud 8530 ft Ancho 164 ft
Elevación 6 ft Umbral 0 ft Rumbo 304
Pista 12R Longitud 3609 ft Ancho 98 ft
Elevación 10 ft Umbral 328 ft Rumbo 124
Pista 30L Longitud 3609 ft Ancho 98 ft
Elevación 7 ft Umbral 0 ft Rumbo 304
Frecuencias
Tipo APP Nombre MONTPELLIE Frequencia 120.375 MHZ
Tipo ATIS Nombre MONTPELLIE Frequencia 124.125 MHZ
Tipo GND Nombre MONTPELLIE Frequencia 121.95 MHZ
Tipo TWR Nombre MONTPELLIE Frequencia 118.2 MHZ
Tipo TWR Nombre MONTPELLIE Frequencia 118.775 MHZ
Radioayudas
Tipo VOR-DME Nombre Mediterranee Frequencia 114450 KHZ
Información meteorológica y NOTAM
ADDS - METARS form results

(1442 UTC 21 October 2021)
Data provider http://aviationweather.gov/metar/data/
 
METAR text: LFMT 211430Z AUTO VRB02KT CAVOK 21/10 Q1016 NOSIG
Conditions at: LFMT (FREJORGUES/MONTP, FR) observed 1430 UTC 21 October 2021
Temperature: 21.0°C (70°F)
Dewpoint: 10.0°C (50°F) [RH = 49%]
Pressure (altimeter): 30.00 inches Hg (1016.0 mb)
Winds: variable direction winds at 2 MPH (2 knots; 1.0 m/s)
Visibility: 6 or more miles (10+ km)
Ceiling: ceiling and visibility are OK
Clouds: unknown
Weather: no significant weather observed at this time

METAR text: LFMT 211400Z AUTO VRB03KT CAVOK 20/10 Q1016 NOSIG
Conditions at: LFMT (FREJORGUES/MONTP, FR) observed 1400 UTC 21 October 2021
Temperature: 20.0°C (68°F)
Dewpoint: 10.0°C (50°F) [RH = 53%]
Pressure (altimeter): 30.00 inches Hg (1016.0 mb)
Winds: variable direction winds at 3 MPH (3 knots; 1.5 m/s)
Visibility: 6 or more miles (10+ km)
Ceiling: ceiling and visibility are OK
Clouds: unknown
Weather: no significant weather observed at this time

Forecast for: LFMT (FREJORGUES/MONTP, FR)
Text: TAF LFMT 210800Z 2109/2209 32010KT CAVOK
Forecast period: 0900 UTC 21 October 2021 to 0900 UTC 22 October 2021
Forecast type: FROM: standard forecast or significant change
Winds: from the NW (320 degrees) at 12 MPH (10 knots; 5.1 m/s)
Visibility: 6 or more miles (10+ km)
Ceiling: unknown
Clouds: missing
Weather: NSW  (no significant weather)